sensor_id;sensor_type;location;lat;lon;timestamp;P1;durP1;ratioP1;P2;durP2;ratioP2
57856;SDS011;43683;48.650;9.290;2022-07-29T00:00:59;10.27;;;6.13;;
57856;SDS011;43683;48.650;9.290;2022-07-29T00:03:25;7.47;;;5.38;;
57856;SDS011;43683;48.650;9.290;2022-07-29T00:05:50;7.05;;;5.40;;
57856;SDS011;43683;48.650;9.290;2022-07-29T00:08:19;8.60;;;5.95;;
57856;SDS011;43683;48.650;9.290;2022-07-29T00:10:45;7.60;;;5.25;;
57856;SDS011;43683;48.650;9.290;2022-07-29T00:13:10;11.55;;;6.57;;
57856;SDS011;43683;48.650;9.290;2022-07-29T00:15:36;9.18;;;5.95;;
57856;SDS011;43683;48.650;9.290;2022-07-29T00:18:01;8.23;;;6.30;;
57856;SDS011;43683;48.650;9.290;2022-07-29T00:20:27;10.85;;;6.50;;
57856;SDS011;43683;48.650;9.290;2022-07-29T00:22:52;10.75;;;7.22;;
57856;SDS011;43683;48.650;9.290;2022-07-29T00:25:18;11.43;;;6.95;;
57856;SDS011;43683;48.650;9.290;2022-07-29T00:27:43;10.27;;;6.75;;
57856;SDS011;43683;48.650;9.290;2022-07-29T00:30:11;9.82;;;6.70;;
57856;SDS011;43683;48.650;9.290;2022-07-29T00:32:36;10.52;;;6.18;;
57856;SDS011;43683;48.650;9.290;2022-07-29T00:35:02;8.48;;;5.60;;
57856;SDS011;43683;48.650;9.290;2022-07-29T00:37:47;8.60;;;5.68;;
57856;SDS011;43683;48.650;9.290;2022-07-29T00:40:13;10.13;;;6.20;;
57856;SDS011;43683;48.650;9.290;2022-07-29T00:42:42;8.40;;;5.82;;
57856;SDS011;43683;48.650;9.290;2022-07-29T00:45:08;8.35;;;6.22;;
57856;SDS011;43683;48.650;9.290;2022-07-29T00:47:33;8.18;;;5.90;;
57856;SDS011;43683;48.650;9.290;2022-07-29T00:49:59;8.90;;;6.13;;
57856;SDS011;43683;48.650;9.290;2022-07-29T00:52:24;8.60;;;6.13;;
57856;SDS011;43683;48.650;9.290;2022-07-29T00:54:50;8.55;;;6.00;;
57856;SDS011;43683;48.650;9.290;2022-07-29T00:57:16;8.10;;;6.07;;
57856;SDS011;43683;48.650;9.290;2022-07-29T00:59:41;8.88;;;5.60;;
57856;SDS011;43683;48.650;9.290;2022-07-29T01:02:07;8.70;;;5.70;;
57856;SDS011;43683;48.650;9.290;2022-07-29T01:04:32;8.20;;;5.25;;
57856;SDS011;43683;48.650;9.290;2022-07-29T01:06:59;10.43;;;5.78;;
57856;SDS011;43683;48.650;9.290;2022-07-29T01:09:26;9.40;;;5.85;;
57856;SDS011;43683;48.650;9.290;2022-07-29T01:11:52;8.95;;;6.25;;
57856;SDS011;43683;48.650;9.290;2022-07-29T01:14:18;8.48;;;5.57;;
57856;SDS011;43683;48.650;9.290;2022-07-29T01:16:48;8.90;;;6.45;;
57856;SDS011;43683;48.650;9.290;2022-07-29T01:19:39;8.25;;;5.45;;
57856;SDS011;43683;48.650;9.290;2022-07-29T01:30:28;7.97;;;4.60;;
57856;SDS011;43683;48.650;9.290;2022-07-29T01:32:55;5.53;;;4.30;;
57856;SDS011;43683;48.650;9.290;2022-07-29T01:35:25;6.60;;;4.50;;
57856;SDS011;43683;48.650;9.290;2022-07-29T01:38:35;6.63;;;4.30;;
57856;SDS011;43683;48.650;9.290;2022-07-29T01:40:58;7.05;;;4.55;;
57856;SDS011;43683;48.650;9.290;2022-07-29T01:43:35;6.50;;;4.50;;
57856;SDS011;43683;48.650;9.290;2022-07-29T01:46:09;7.03;;;4.32;;
57856;SDS011;43683;48.650;9.290;2022-07-29T01:48:47;6.03;;;4.15;;
57856;SDS011;43683;48.650;9.290;2022-07-29T01:51:24;6.43;;;4.03;;
57856;SDS011;43683;48.650;9.290;2022-07-29T01:53:58;8.30;;;5.03;;
57856;SDS011;43683;48.650;9.290;2022-07-29T01:56:33;8.75;;;5.25;;
57856;SDS011;43683;48.650;9.290;2022-07-29T01:59:01;9.18;;;6.63;;
57856;SDS011;43683;48.650;9.290;2022-07-29T02:03:55;9.38;;;6.05;;
57856;SDS011;43683;48.650;9.290;2022-07-29T02:06:22;9.98;;;6.40;;
57856;SDS011;43683;48.650;9.290;2022-07-29T02:08:49;9.98;;;6.97;;
57856;SDS011;43683;48.650;9.290;2022-07-29T02:11:17;11.38;;;7.18;;
57856;SDS011;43683;48.650;9.290;2022-07-29T02:13:43;11.82;;;6.88;;
57856;SDS011;43683;48.650;9.290;2022-07-29T02:16:09;10.32;;;6.32;;
57856;SDS011;43683;48.650;9.290;2022-07-29T02:18:37;10.85;;;6.72;;
57856;SDS011;43683;48.650;9.290;2022-07-29T02:21:06;10.68;;;6.78;;
57856;SDS011;43683;48.650;9.290;2022-07-29T02:23:32;9.60;;;7.03;;
57856;SDS011;43683;48.650;9.290;2022-07-29T02:26:00;9.95;;;6.53;;
57856;SDS011;43683;48.650;9.290;2022-07-29T02:28:27;9.90;;;5.95;;
57856;SDS011;43683;48.650;9.290;2022-07-29T02:30:55;10.10;;;6.90;;
57856;SDS011;43683;48.650;9.290;2022-07-29T02:33:24;11.02;;;6.88;;
57856;SDS011;43683;48.650;9.290;2022-07-29T02:35:51;9.43;;;6.13;;
57856;SDS011;43683;48.650;9.290;2022-07-29T02:38:17;9.30;;;6.53;;
57856;SDS011;43683;48.650;9.290;2022-07-29T02:41:13;9.75;;;6.78;;
57856;SDS011;43683;48.650;9.290;2022-07-29T02:43:42;12.88;;;7.03;;
57856;SDS011;43683;48.650;9.290;2022-07-29T02:48:38;10.07;;;6.55;;
57856;SDS011;43683;48.650;9.290;2022-07-29T02:51:17;9.32;;;6.43;;
57856;SDS011;43683;48.650;9.290;2022-07-29T02:53:51;11.93;;;7.50;;
57856;SDS011;43683;48.650;9.290;2022-07-29T02:56:19;10.70;;;7.32;;
57856;SDS011;43683;48.650;9.290;2022-07-29T02:58:54;13.13;;;8.52;;
57856;SDS011;43683;48.650;9.290;2022-07-29T03:01:25;11.93;;;8.45;;
57856;SDS011;43683;48.650;9.290;2022-07-29T03:03:56;10.27;;;7.82;;
57856;SDS011;43683;48.650;9.290;2022-07-29T03:06:23;11.82;;;7.93;;
57856;SDS011;43683;48.650;9.290;2022-07-29T03:08:50;9.35;;;6.97;;
57856;SDS011;43683;48.650;9.290;2022-07-29T03:11:16;11.98;;;7.35;;
57856;SDS011;43683;48.650;9.290;2022-07-29T03:13:42;12.05;;;6.85;;
57856;SDS011;43683;48.650;9.290;2022-07-29T03:16:09;11.25;;;7.30;;
57856;SDS011;43683;48.650;9.290;2022-07-29T03:18:35;9.77;;;6.90;;
57856;SDS011;43683;48.650;9.290;2022-07-29T03:21:02;10.87;;;7.97;;
57856;SDS011;43683;48.650;9.290;2022-07-29T03:23:28;10.05;;;7.03;;
57856;SDS011;43683;48.650;9.290;2022-07-29T03:25:54;11.85;;;7.57;;
57856;SDS011;43683;48.650;9.290;2022-07-29T03:28:19;11.38;;;7.65;;
57856;SDS011;43683;48.650;9.290;2022-07-29T03:30:46;10.98;;;7.40;;
57856;SDS011;43683;48.650;9.290;2022-07-29T03:33:11;13.85;;;8.00;;
57856;SDS011;43683;48.650;9.290;2022-07-29T03:35:37;11.43;;;7.38;;
57856;SDS011;43683;48.650;9.290;2022-07-29T03:38:03;11.68;;;7.50;;
57856;SDS011;43683;48.650;9.290;2022-07-29T03:40:40;12.63;;;8.05;;
57856;SDS011;43683;48.650;9.290;2022-07-29T03:43:13;11.13;;;7.35;;
57856;SDS011;43683;48.650;9.290;2022-07-29T03:45:42;9.55;;;7.40;;
57856;SDS011;43683;48.650;9.290;2022-07-29T03:48:12;14.35;;;8.32;;
57856;SDS011;43683;48.650;9.290;2022-07-29T03:50:41;11.75;;;7.85;;
57856;SDS011;43683;48.650;9.290;2022-07-29T03:53:07;10.52;;;7.50;;
57856;SDS011;43683;48.650;9.290;2022-07-29T03:55:36;12.98;;;8.60;;
57856;SDS011;43683;48.650;9.290;2022-07-29T03:58:06;11.40;;;7.95;;
57856;SDS011;43683;48.650;9.290;2022-07-29T04:00:33;11.63;;;7.80;;
57856;SDS011;43683;48.650;9.290;2022-07-29T04:02:59;12.77;;;8.35;;
57856;SDS011;43683;48.650;9.290;2022-07-29T04:05:25;13.35;;;8.13;;
57856;SDS011;43683;48.650;9.290;2022-07-29T04:07:51;12.77;;;7.75;;
57856;SDS011;43683;48.650;9.290;2022-07-29T04:10:17;10.77;;;7.60;;
57856;SDS011;43683;48.650;9.290;2022-07-29T04:12:43;12.02;;;8.38;;
57856;SDS011;43683;48.650;9.290;2022-07-29T04:15:09;11.98;;;7.22;;
57856;SDS011;43683;48.650;9.290;2022-07-29T04:17:35;13.60;;;7.97;;
57856;SDS011;43683;48.650;9.290;2022-07-29T04:20:01;11.52;;;7.95;;
57856;SDS011;43683;48.650;9.290;2022-07-29T04:22:26;13.73;;;9.00;;
57856;SDS011;43683;48.650;9.290;2022-07-29T04:24:52;11.52;;;7.93;;
57856;SDS011;43683;48.650;9.290;2022-07-29T04:27:17;12.50;;;8.52;;
57856;SDS011;43683;48.650;9.290;2022-07-29T04:29:43;16.02;;;8.80;;
57856;SDS011;43683;48.650;9.290;2022-07-29T04:32:08;20.02;;;9.60;;
57856;SDS011;43683;48.650;9.290;2022-07-29T04:34:34;13.55;;;8.77;;
57856;SDS011;43683;48.650;9.290;2022-07-29T04:36:59;13.70;;;8.63;;
57856;SDS011;43683;48.650;9.290;2022-07-29T04:39:25;13.75;;;10.02;;
57856;SDS011;43683;48.650;9.290;2022-07-29T04:41:50;12.68;;;7.78;;
57856;SDS011;43683;48.650;9.290;2022-07-29T04:44:16;11.93;;;8.07;;
57856;SDS011;43683;48.650;9.290;2022-07-29T04:46:42;12.07;;;6.93;;
57856;SDS011;43683;48.650;9.290;2022-07-29T04:49:07;9.73;;;6.65;;
57856;SDS011;43683;48.650;9.290;2022-07-29T04:51:33;10.77;;;6.97;;
57856;SDS011;43683;48.650;9.290;2022-07-29T04:53:59;11.27;;;6.75;;
57856;SDS011;43683;48.650;9.290;2022-07-29T04:56:25;10.73;;;7.10;;
57856;SDS011;43683;48.650;9.290;2022-07-29T04:58:50;12.60;;;7.28;;
57856;SDS011;43683;48.650;9.290;2022-07-29T05:01:16;12.13;;;7.45;;
57856;SDS011;43683;48.650;9.290;2022-07-29T05:03:42;9.85;;;7.28;;
57856;SDS011;43683;48.650;9.290;2022-07-29T05:06:07;9.82;;;6.88;;
57856;SDS011;43683;48.650;9.290;2022-07-29T05:08:33;9.27;;;6.70;;
57856;SDS011;43683;48.650;9.290;2022-07-29T05:10:58;9.95;;;6.65;;
57856;SDS011;43683;48.650;9.290;2022-07-29T05:13:24;11.00;;;6.90;;
57856;SDS011;43683;48.650;9.290;2022-07-29T05:15:49;8.05;;;5.40;;
57856;SDS011;43683;48.650;9.290;2022-07-29T05:18:15;8.00;;;5.47;;
57856;SDS011;43683;48.650;9.290;2022-07-29T05:20:40;9.10;;;5.82;;
57856;SDS011;43683;48.650;9.290;2022-07-29T05:23:06;8.60;;;5.53;;
57856;SDS011;43683;48.650;9.290;2022-07-29T05:25:32;8.73;;;5.78;;
57856;SDS011;43683;48.650;9.290;2022-07-29T05:27:57;7.88;;;5.80;;
57856;SDS011;43683;48.650;9.290;2022-07-29T05:30:23;8.50;;;5.50;;
57856;SDS011;43683;48.650;9.290;2022-07-29T05:32:49;7.38;;;5.30;;
57856;SDS011;43683;48.650;9.290;2022-07-29T05:35:14;7.88;;;5.55;;
57856;SDS011;43683;48.650;9.290;2022-07-29T05:37:40;9.77;;;5.80;;
57856;SDS011;43683;48.650;9.290;2022-07-29T05:40:06;9.07;;;5.85;;
57856;SDS011;43683;48.650;9.290;2022-07-29T05:42:34;8.57;;;5.35;;
57856;SDS011;43683;48.650;9.290;2022-07-29T05:45:00;7.43;;;5.22;;
57856;SDS011;43683;48.650;9.290;2022-07-29T05:47:27;6.65;;;4.97;;
57856;SDS011;43683;48.650;9.290;2022-07-29T05:49:53;6.90;;;4.97;;
57856;SDS011;43683;48.650;9.290;2022-07-29T05:52:20;7.60;;;4.90;;
57856;SDS011;43683;48.650;9.290;2022-07-29T05:54:45;7.43;;;5.00;;
57856;SDS011;43683;48.650;9.290;2022-07-29T05:57:15;8.45;;;5.15;;
57856;SDS011;43683;48.650;9.290;2022-07-29T05:59:45;7.95;;;4.95;;
57856;SDS011;43683;48.650;9.290;2022-07-29T06:02:11;7.20;;;5.30;;
57856;SDS011;43683;48.650;9.290;2022-07-29T06:04:37;10.00;;;5.20;;
57856;SDS011;43683;48.650;9.290;2022-07-29T06:07:03;7.18;;;4.97;;
57856;SDS011;43683;48.650;9.290;2022-07-29T06:09:29;6.18;;;4.47;;
57856;SDS011;43683;48.650;9.290;2022-07-29T06:11:54;6.50;;;4.43;;
57856;SDS011;43683;48.650;9.290;2022-07-29T06:14:20;7.55;;;4.03;;
57856;SDS011;43683;48.650;9.290;2022-07-29T06:16:45;5.63;;;3.83;;
57856;SDS011;43683;48.650;9.290;2022-07-29T06:19:11;7.30;;;3.90;;
57856;SDS011;43683;48.650;9.290;2022-07-29T06:21:40;6.10;;;3.72;;
57856;SDS011;43683;48.650;9.290;2022-07-29T06:24:12;5.53;;;3.72;;
57856;SDS011;43683;48.650;9.290;2022-07-29T06:26:40;8.52;;;4.65;;
57856;SDS011;43683;48.650;9.290;2022-07-29T06:29:06;6.47;;;4.00;;
57856;SDS011;43683;48.650;9.290;2022-07-29T06:31:33;6.05;;;3.50;;
57856;SDS011;43683;48.650;9.290;2022-07-29T06:33:59;5.80;;;3.53;;
57856;SDS011;43683;48.650;9.290;2022-07-29T06:36:24;6.20;;;3.47;;
57856;SDS011;43683;48.650;9.290;2022-07-29T06:38:50;4.85;;;3.30;;
57856;SDS011;43683;48.650;9.290;2022-07-29T06:41:15;4.82;;;3.50;;
57856;SDS011;43683;48.650;9.290;2022-07-29T06:43:42;6.43;;;3.58;;
57856;SDS011;43683;48.650;9.290;2022-07-29T06:46:14;5.55;;;3.20;;
57856;SDS011;43683;48.650;9.290;2022-07-29T06:48:41;4.88;;;3.40;;
57856;SDS011;43683;48.650;9.290;2022-07-29T06:51:08;6.30;;;3.33;;
57856;SDS011;43683;48.650;9.290;2022-07-29T06:53:35;4.55;;;2.88;;
57856;SDS011;43683;48.650;9.290;2022-07-29T06:56:01;4.47;;;2.72;;
57856;SDS011;43683;48.650;9.290;2022-07-29T06:58:28;5.10;;;2.83;;
57856;SDS011;43683;48.650;9.290;2022-07-29T07:03:25;4.50;;;2.78;;
57856;SDS011;43683;48.650;9.290;2022-07-29T07:05:52;5.15;;;3.05;;
57856;SDS011;43683;48.650;9.290;2022-07-29T07:08:18;4.50;;;3.00;;
57856;SDS011;43683;48.650;9.290;2022-07-29T07:10:44;5.38;;;2.90;;
57856;SDS011;43683;48.650;9.290;2022-07-29T07:13:10;4.85;;;2.65;;
57856;SDS011;43683;48.650;9.290;2022-07-29T07:15:36;3.88;;;2.88;;
57856;SDS011;43683;48.650;9.290;2022-07-29T07:18:03;4.63;;;2.92;;
57856;SDS011;43683;48.650;9.290;2022-07-29T07:20:29;3.88;;;2.67;;
57856;SDS011;43683;48.650;9.290;2022-07-29T07:22:55;4.82;;;3.00;;
57856;SDS011;43683;48.650;9.290;2022-07-29T07:25:20;4.03;;;2.95;;
57856;SDS011;43683;48.650;9.290;2022-07-29T07:27:46;4.40;;;2.75;;
57856;SDS011;43683;48.650;9.290;2022-07-29T07:30:11;4.03;;;2.60;;
57856;SDS011;43683;48.650;9.290;2022-07-29T07:32:38;3.47;;;2.55;;
57856;SDS011;43683;48.650;9.290;2022-07-29T07:35:04;6.45;;;3.30;;
57856;SDS011;43683;48.650;9.290;2022-07-29T07:37:30;3.75;;;2.75;;
57856;SDS011;43683;48.650;9.290;2022-07-29T07:39:56;6.05;;;3.05;;
57856;SDS011;43683;48.650;9.290;2022-07-29T07:42:23;3.88;;;3.05;;
57856;SDS011;43683;48.650;9.290;2022-07-29T07:44:49;4.97;;;3.20;;
57856;SDS011;43683;48.650;9.290;2022-07-29T07:47:14;5.28;;;2.88;;
57856;SDS011;43683;48.650;9.290;2022-07-29T07:49:44;5.43;;;2.70;;
57856;SDS011;43683;48.650;9.290;2022-07-29T07:52:11;4.50;;;2.90;;
57856;SDS011;43683;48.650;9.290;2022-07-29T07:54:36;5.55;;;3.65;;
57856;SDS011;43683;48.650;9.290;2022-07-29T07:57:02;7.05;;;3.58;;
57856;SDS011;43683;48.650;9.290;2022-07-29T07:59:28;4.22;;;3.10;;
57856;SDS011;43683;48.650;9.290;2022-07-29T08:01:53;4.65;;;3.17;;
57856;SDS011;43683;48.650;9.290;2022-07-29T08:04:19;4.22;;;2.70;;
57856;SDS011;43683;48.650;9.290;2022-07-29T08:06:44;4.57;;;2.58;;
57856;SDS011;43683;48.650;9.290;2022-07-29T08:09:10;3.95;;;2.72;;
57856;SDS011;43683;48.650;9.290;2022-07-29T08:11:35;4.82;;;2.90;;
57856;SDS011;43683;48.650;9.290;2022-07-29T08:14:01;5.05;;;2.88;;
57856;SDS011;43683;48.650;9.290;2022-07-29T08:16:27;4.53;;;2.85;;
57856;SDS011;43683;48.650;9.290;2022-07-29T08:18:53;4.65;;;3.10;;
57856;SDS011;43683;48.650;9.290;2022-07-29T08:21:21;4.80;;;2.92;;
57856;SDS011;43683;48.650;9.290;2022-07-29T08:23:48;4.50;;;2.97;;
57856;SDS011;43683;48.650;9.290;2022-07-29T08:26:17;5.25;;;3.13;;
57856;SDS011;43683;48.650;9.290;2022-07-29T08:28:44;4.18;;;3.13;;
57856;SDS011;43683;48.650;9.290;2022-07-29T08:31:10;4.95;;;3.15;;
57856;SDS011;43683;48.650;9.290;2022-07-29T08:33:37;4.13;;;3.05;;
57856;SDS011;43683;48.650;9.290;2022-07-29T08:36:03;5.15;;;2.90;;
57856;SDS011;43683;48.650;9.290;2022-07-29T08:38:29;4.77;;;3.10;;
57856;SDS011;43683;48.650;9.290;2022-07-29T08:40:54;4.63;;;3.03;;
57856;SDS011;43683;48.650;9.290;2022-07-29T08:43:20;4.43;;;3.20;;
57856;SDS011;43683;48.650;9.290;2022-07-29T08:45:47;4.47;;;2.80;;
57856;SDS011;43683;48.650;9.290;2022-07-29T08:48:17;5.28;;;3.22;;
57856;SDS011;43683;48.650;9.290;2022-07-29T08:50:44;5.50;;;2.83;;
57856;SDS011;43683;48.650;9.290;2022-07-29T08:53:12;5.03;;;3.00;;
57856;SDS011;43683;48.650;9.290;2022-07-29T08:55:40;4.50;;;3.05;;
57856;SDS011;43683;48.650;9.290;2022-07-29T08:58:07;6.55;;;3.15;;
57856;SDS011;43683;48.650;9.290;2022-07-29T09:00:33;5.03;;;2.88;;
57856;SDS011;43683;48.650;9.290;2022-07-29T09:03:02;5.43;;;2.80;;
57856;SDS011;43683;48.650;9.290;2022-07-29T09:05:29;3.22;;;2.55;;
57856;SDS011;43683;48.650;9.290;2022-07-29T09:07:56;4.47;;;2.97;;
57856;SDS011;43683;48.650;9.290;2022-07-29T09:10:22;5.43;;;3.20;;
57856;SDS011;43683;48.650;9.290;2022-07-29T09:12:48;4.83;;;3.10;;
57856;SDS011;43683;48.650;9.290;2022-07-29T09:15:13;4.27;;;3.13;;
57856;SDS011;43683;48.650;9.290;2022-07-29T09:17:47;3.73;;;2.73;;
57856;SDS011;43683;48.650;9.290;2022-07-29T09:20:15;4.45;;;2.85;;
57856;SDS011;43683;48.650;9.290;2022-07-29T09:22:42;3.80;;;2.90;;
57856;SDS011;43683;48.650;9.290;2022-07-29T09:25:08;5.77;;;3.17;;
57856;SDS011;43683;48.650;9.290;2022-07-29T09:27:36;4.03;;;2.70;;
57856;SDS011;43683;48.650;9.290;2022-07-29T09:30:06;4.73;;;3.13;;
57856;SDS011;43683;48.650;9.290;2022-07-29T09:32:53;4.15;;;2.92;;
57856;SDS011;43683;48.650;9.290;2022-07-29T09:35:24;5.70;;;3.70;;
57856;SDS011;43683;48.650;9.290;2022-07-29T09:42:45;4.82;;;3.50;;
57856;SDS011;43683;48.650;9.290;2022-07-29T09:45:11;6.22;;;3.22;;
57856;SDS011;43683;48.650;9.290;2022-07-29T09:50:14;5.28;;;3.20;;
57856;SDS011;43683;48.650;9.290;2022-07-29T09:52:47;4.38;;;3.33;;
57856;SDS011;43683;48.650;9.290;2022-07-29T09:55:14;6.88;;;3.50;;
57856;SDS011;43683;48.650;9.290;2022-07-29T09:57:40;5.22;;;3.47;;
57856;SDS011;43683;48.650;9.290;2022-07-29T10:00:08;4.95;;;2.95;;
57856;SDS011;43683;48.650;9.290;2022-07-29T10:02:40;7.32;;;3.70;;
57856;SDS011;43683;48.650;9.290;2022-07-29T10:05:29;4.88;;;3.22;;
57856;SDS011;43683;48.650;9.290;2022-07-29T10:07:55;4.32;;;2.90;;
57856;SDS011;43683;48.650;9.290;2022-07-29T10:10:32;4.97;;;3.30;;
57856;SDS011;43683;48.650;9.290;2022-07-29T10:13:03;4.50;;;3.10;;
57856;SDS011;43683;48.650;9.290;2022-07-29T10:15:31;4.43;;;3.30;;
57856;SDS011;43683;48.650;9.290;2022-07-29T10:18:01;4.72;;;3.20;;
57856;SDS011;43683;48.650;9.290;2022-07-29T10:20:28;7.25;;;3.78;;
57856;SDS011;43683;48.650;9.290;2022-07-29T10:22:53;4.83;;;3.17;;
57856;SDS011;43683;48.650;9.290;2022-07-29T10:27:46;5.85;;;3.05;;
57856;SDS011;43683;48.650;9.290;2022-07-29T10:30:14;4.90;;;3.35;;
57856;SDS011;43683;48.650;9.290;2022-07-29T10:35:27;5.28;;;3.28;;
57856;SDS011;43683;48.650;9.290;2022-07-29T10:41:06;4.80;;;3.45;;
57856;SDS011;43683;48.650;9.290;2022-07-29T10:46:38;5.55;;;3.63;;
57856;SDS011;43683;48.650;9.290;2022-07-29T10:49:06;4.18;;;3.05;;
57856;SDS011;43683;48.650;9.290;2022-07-29T10:54:15;4.67;;;3.27;;
57856;SDS011;43683;48.650;9.290;2022-07-29T10:57:10;4.40;;;3.30;;
57856;SDS011;43683;48.650;9.290;2022-07-29T10:59:50;4.50;;;3.58;;
57856;SDS011;43683;48.650;9.290;2022-07-29T11:05:11;5.38;;;3.15;;
57856;SDS011;43683;48.650;9.290;2022-07-29T11:07:39;5.43;;;3.40;;
57856;SDS011;43683;48.650;9.290;2022-07-29T11:10:25;6.07;;;3.10;;
57856;SDS011;43683;48.650;9.290;2022-07-29T11:12:50;4.57;;;3.40;;
57856;SDS011;43683;48.650;9.290;2022-07-29T11:15:20;4.55;;;3.38;;
57856;SDS011;43683;48.650;9.290;2022-07-29T11:20:31;6.45;;;3.55;;
57856;SDS011;43683;48.650;9.290;2022-07-29T11:23:13;5.70;;;3.60;;
57856;SDS011;43683;48.650;9.290;2022-07-29T11:28:35;5.90;;;3.10;;
57856;SDS011;43683;48.650;9.290;2022-07-29T11:31:16;3.22;;;2.53;;
57856;SDS011;43683;48.650;9.290;2022-07-29T11:33:45;4.68;;;2.85;;
57856;SDS011;43683;48.650;9.290;2022-07-29T11:36:11;5.75;;;3.05;;
57856;SDS011;43683;48.650;9.290;2022-07-29T11:38:38;3.15;;;1.90;;
57856;SDS011;43683;48.650;9.290;2022-07-29T11:43:46;3.35;;;1.30;;
57856;SDS011;43683;48.650;9.290;2022-07-29T11:49:13;1.55;;;0.95;;
57856;SDS011;43683;48.650;9.290;2022-07-29T11:51:49;5.35;;;1.70;;
57856;SDS011;43683;48.650;9.290;2022-07-29T11:54:16;5.22;;;1.77;;
57856;SDS011;43683;48.650;9.290;2022-07-29T11:56:49;3.63;;;1.80;;
57856;SDS011;43683;48.650;9.290;2022-07-29T11:59:15;3.00;;;1.65;;
57856;SDS011;43683;48.650;9.290;2022-07-29T12:01:57;3.00;;;1.65;;
57856;SDS011;43683;48.650;9.290;2022-07-29T12:04:23;1.77;;;1.48;;
57856;SDS011;43683;48.650;9.290;2022-07-29T12:06:50;2.17;;;1.60;;
57856;SDS011;43683;48.650;9.290;2022-07-29T12:09:17;2.55;;;2.22;;
57856;SDS011;43683;48.650;9.290;2022-07-29T12:11:43;2.10;;;1.80;;
57856;SDS011;43683;48.650;9.290;2022-07-29T12:14:23;2.67;;;1.87;;
57856;SDS011;43683;48.650;9.290;2022-07-29T12:16:58;2.83;;;1.90;;
57856;SDS011;43683;48.650;9.290;2022-07-29T12:19:25;2.95;;;2.05;;
57856;SDS011;43683;48.650;9.290;2022-07-29T12:21:52;4.43;;;2.15;;
57856;SDS011;43683;48.650;9.290;2022-07-29T12:24:19;5.35;;;2.33;;
57856;SDS011;43683;48.650;9.290;2022-07-29T12:26:56;3.00;;;2.28;;
57856;SDS011;43683;48.650;9.290;2022-07-29T12:29:23;3.55;;;2.20;;
57856;SDS011;43683;48.650;9.290;2022-07-29T12:31:52;3.13;;;2.10;;
57856;SDS011;43683;48.650;9.290;2022-07-29T12:34:22;3.63;;;1.90;;
57856;SDS011;43683;48.650;9.290;2022-07-29T12:36:49;3.17;;;2.30;;
57856;SDS011;43683;48.650;9.290;2022-07-29T12:39:18;4.80;;;2.75;;
57856;SDS011;43683;48.650;9.290;2022-07-29T12:41:44;6.70;;;3.50;;
57856;SDS011;43683;48.650;9.290;2022-07-29T12:44:10;7.60;;;3.85;;
57856;SDS011;43683;48.650;9.290;2022-07-29T12:46:36;5.13;;;3.30;;
57856;SDS011;43683;48.650;9.290;2022-07-29T12:49:02;5.55;;;3.38;;
57856;SDS011;43683;48.650;9.290;2022-07-29T12:51:33;5.78;;;3.35;;
57856;SDS011;43683;48.650;9.290;2022-07-29T12:54:02;5.85;;;3.75;;
57856;SDS011;43683;48.650;9.290;2022-07-29T12:56:28;6.40;;;3.75;;
57856;SDS011;43683;48.650;9.290;2022-07-29T12:58:54;5.88;;;3.78;;
57856;SDS011;43683;48.650;9.290;2022-07-29T13:01:20;7.93;;;4.43;;
57856;SDS011;43683;48.650;9.290;2022-07-29T13:03:50;9.48;;;4.25;;
57856;SDS011;43683;48.650;9.290;2022-07-29T13:06:27;5.40;;;3.78;;
57856;SDS011;43683;48.650;9.290;2022-07-29T13:09:00;6.05;;;4.18;;
57856;SDS011;43683;48.650;9.290;2022-07-29T13:11:49;8.85;;;4.82;;
57856;SDS011;43683;48.650;9.290;2022-07-29T13:19:48;6.38;;;4.53;;
57856;SDS011;43683;48.650;9.290;2022-07-29T13:22:16;5.10;;;3.35;;
57856;SDS011;43683;48.650;9.290;2022-07-29T13:24:50;7.70;;;4.45;;
57856;SDS011;43683;48.650;9.290;2022-07-29T13:27:23;5.78;;;3.75;;
57856;SDS011;43683;48.650;9.290;2022-07-29T13:29:50;6.53;;;4.00;;
57856;SDS011;43683;48.650;9.290;2022-07-29T13:32:17;7.53;;;4.20;;
57856;SDS011;43683;48.650;9.290;2022-07-29T13:34:43;7.00;;;4.32;;
57856;SDS011;43683;48.650;9.290;2022-07-29T13:37:09;6.30;;;3.90;;
57856;SDS011;43683;48.650;9.290;2022-07-29T13:39:34;6.55;;;3.90;;
57856;SDS011;43683;48.650;9.290;2022-07-29T13:42:00;9.27;;;3.90;;
57856;SDS011;43683;48.650;9.290;2022-07-29T13:44:26;7.85;;;4.32;;
57856;SDS011;43683;48.650;9.290;2022-07-29T13:46:51;6.78;;;4.40;;
57856;SDS011;43683;48.650;9.290;2022-07-29T13:49:17;7.40;;;4.63;;
57856;SDS011;43683;48.650;9.290;2022-07-29T13:51:42;6.25;;;4.22;;
57856;SDS011;43683;48.650;9.290;2022-07-29T13:54:08;7.22;;;3.97;;
57856;SDS011;43683;48.650;9.290;2022-07-29T13:56:33;7.65;;;4.05;;
57856;SDS011;43683;48.650;9.290;2022-07-29T13:58:59;7.30;;;4.28;;
57856;SDS011;43683;48.650;9.290;2022-07-29T14:01:25;6.88;;;4.88;;
57856;SDS011;43683;48.650;9.290;2022-07-29T14:03:51;6.43;;;4.82;;
57856;SDS011;43683;48.650;9.290;2022-07-29T14:06:16;6.45;;;4.47;;
57856;SDS011;43683;48.650;9.290;2022-07-29T14:08:42;6.95;;;5.00;;
57856;SDS011;43683;48.650;9.290;2022-07-29T14:11:07;8.60;;;4.75;;
57856;SDS011;43683;48.650;9.290;2022-07-29T14:13:33;7.78;;;5.10;;
57856;SDS011;43683;48.650;9.290;2022-07-29T14:15:58;8.52;;;5.00;;
57856;SDS011;43683;48.650;9.290;2022-07-29T14:18:24;7.55;;;4.45;;
57856;SDS011;43683;48.650;9.290;2022-07-29T14:20:50;5.53;;;3.80;;
57856;SDS011;43683;48.650;9.290;2022-07-29T14:23:16;5.68;;;3.95;;
57856;SDS011;43683;48.650;9.290;2022-07-29T14:25:41;5.03;;;3.72;;
57856;SDS011;43683;48.650;9.290;2022-07-29T14:28:07;5.78;;;3.63;;
57856;SDS011;43683;48.650;9.290;2022-07-29T14:30:33;5.07;;;3.72;;
57856;SDS011;43683;48.650;9.290;2022-07-29T14:32:58;5.18;;;3.90;;
57856;SDS011;43683;48.650;9.290;2022-07-29T14:35:24;5.40;;;4.07;;
57856;SDS011;43683;48.650;9.290;2022-07-29T14:37:49;6.43;;;3.80;;
57856;SDS011;43683;48.650;9.290;2022-07-29T14:40:15;5.35;;;3.83;;
57856;SDS011;43683;48.650;9.290;2022-07-29T14:42:40;4.90;;;3.47;;
57856;SDS011;43683;48.650;9.290;2022-07-29T14:45:07;4.72;;;3.75;;
57856;SDS011;43683;48.650;9.290;2022-07-29T14:47:33;5.55;;;3.55;;
57856;SDS011;43683;48.650;9.290;2022-07-29T14:49:59;5.45;;;4.05;;
57856;SDS011;43683;48.650;9.290;2022-07-29T14:52:25;4.95;;;3.90;;
57856;SDS011;43683;48.650;9.290;2022-07-29T14:54:50;6.03;;;4.00;;
57856;SDS011;43683;48.650;9.290;2022-07-29T14:57:16;5.15;;;3.55;;
57856;SDS011;43683;48.650;9.290;2022-07-29T14:59:41;6.10;;;3.92;;
57856;SDS011;43683;48.650;9.290;2022-07-29T15:02:07;6.95;;;3.92;;
57856;SDS011;43683;48.650;9.290;2022-07-29T15:04:33;6.07;;;4.18;;
57856;SDS011;43683;48.650;9.290;2022-07-29T15:06:58;5.82;;;4.25;;
57856;SDS011;43683;48.650;9.290;2022-07-29T15:09:24;6.47;;;4.05;;
57856;SDS011;43683;48.650;9.290;2022-07-29T15:11:49;6.75;;;4.22;;
57856;SDS011;43683;48.650;9.290;2022-07-29T15:14:15;6.68;;;3.92;;
57856;SDS011;43683;48.650;9.290;2022-07-29T15:16:41;6.00;;;3.58;;
57856;SDS011;43683;48.650;9.290;2022-07-29T15:19:07;4.95;;;3.67;;
57856;SDS011;43683;48.650;9.290;2022-07-29T15:21:33;7.18;;;3.97;;
57856;SDS011;43683;48.650;9.290;2022-07-29T15:23:59;6.03;;;3.90;;
57856;SDS011;43683;48.650;9.290;2022-07-29T15:26:25;10.55;;;4.60;;
57856;SDS011;43683;48.650;9.290;2022-07-29T15:28:50;7.50;;;4.57;;
57856;SDS011;43683;48.650;9.290;2022-07-29T15:31:16;5.95;;;4.13;;
57856;SDS011;43683;48.650;9.290;2022-07-29T15:33:43;5.60;;;3.97;;
57856;SDS011;43683;48.650;9.290;2022-07-29T15:36:09;6.55;;;3.85;;
57856;SDS011;43683;48.650;9.290;2022-07-29T15:38:37;9.65;;;4.28;;
57856;SDS011;43683;48.650;9.290;2022-07-29T15:41:02;5.63;;;4.00;;
57856;SDS011;43683;48.650;9.290;2022-07-29T15:43:28;8.32;;;4.32;;
57856;SDS011;43683;48.650;9.290;2022-07-29T15:45:53;5.90;;;3.90;;